Sidell, IL (61876)

6:10 PM CDT on September 23, 2014 (GMT -0500)
Edgar County | Change Station
CLOSE
Current Station
Airport
Location: Paris,
Elevation: 653 ft
Nearby Weather Stations

Elev 653 ft 39.70 °N, 87.67 °W | Updated 15 minutes ago

Clear
Clear
71 °F
Feels Like 71 °F
N
0
Wind Variable Wind from North

Today
High -- | Low -- °F
--% Chance of Precip.
Yesterday
High -- | Low -- °F
Precip. -- in
6:39 AM 6:46 PM
Waning Crescent, 0% visible
Pressure 30.27 in
Visibility 10.0 miles
Clouds Clear
Dew Point 50 °F
Humidity 48%
Rainfall 0.00 in
Snow Depth Not available.
UV 0 out of 12
Pollen 4.50 out of 12
Air Quality Not available.
Flu Activity Not available.
METAR KPRG 232255Z AUTO 00000KT 10SM CLR 22/10 A3027 RMK AO2 T02160102

More Conditions Fewer Conditions

Pressure 30.27 in
Visibility 10.0 miles
Clouds Clear
Dew Point 50 °F
Humidity 48%
Rainfall 0.00 in
Snow Depth Not available.
UV 0 out of 12
Pollen 4.50 out of 12
Air Quality Not available.
Flu Activity Not available.
METAR KPRG 232255Z AUTO 00000KT 10SM CLR 22/10 A3027 RMK AO2 T02160102

More Conditions Fewer Conditions

10-Day Weather Forecast

Almanac

Astronomy

Sep. 23, 2014 Rise Set
Actual Time 6:39 AM CDT 6:46 PM CDT
Civil Twilight 6:12 AM CDT 7:13 PM CDT
Nautical Twilight 5:41 AM CDT 7:45 PM CDT
Astronomical Twilight 5:09 AM CDT 8:17 PM CDT
Moon 6:03 AM CDT 6:25 PM CDT
Length of Visible Light 13h 00m
Length of Day
12h 06m
Tomorrow will be 2m 36s shorter.
Waning Crescent, 0% of the Moon is Illuminated
Today
Waning Crescent
Sep 24
New
Oct 1
First Quarter
Oct 8
Full
Oct 15
Last Quarter

Today's Extremes

State Highs State Lows

Community

WunderPhotos

Upload Photos

1,755,824 photos uploaded!

WunderBlogs® & News

Nearby

Snow Depth

Station Depth Elevation
No new snow has been reported.

Earthquake Activity

City Distance Mag. Time & Date
No recent earthquake activity has been reported nearby.
Minimum magnitude displayed is 2.5.

Coastal Water Temperatures

Place Temperature
No Stations Reporting

Nearby Weather Stations